TimeEDT,TemperatureF,Dew PointF,Humidity,Sea Level PressureIn,VisibilityMPH,Wind Direction,Wind SpeedMPH,Gust SpeedMPH,PrecipitationIn,Events,Conditions,WindDirDegrees,DateUTC
12:53 AM,37.0,30.9,79,30.22,10.0,South,4.6,-,N/A,,Overcast,180,2013-03-15 04:53:00
1:53 AM,36.0,30.9,82,30.19,10.0,South,3.5,-,N/A,,Partly Cloudy,170,2013-03-15 05:53:00
2:53 AM,35.1,30.0,82,30.17,10.0,South,4.6,-,N/A,,Clear,170,2013-03-15 06:53:00
3:53 AM,35.1,30.0,82,30.14,10.0,Calm,Calm,-,N/A,,Clear,0,2013-03-15 07:53:00
4:53 AM,34.0,28.9,82,30.11,10.0,Calm,Calm,-,N/A,,Clear,0,2013-03-15 08:53:00
5:53 AM,34.0,28.9,82,30.07,10.0,SSE,4.6,-,N/A,,Clear,160,2013-03-15 09:53:00
6:53 AM,34.0,28.9,82,30.07,10.0,Calm,Calm,-,N/A,,Clear,0,2013-03-15 10:53:00
7:53 AM,33.1,28.9,85,30.07,10.0,Calm,Calm,-,N/A,,Clear,0,2013-03-15 11:53:00
8:53 AM,35.1,30.0,82,30.06,10.0,Calm,Calm,-,N/A,,Clear,0,2013-03-15 12:53:00
9:53 AM,39.0,30.9,73,30.04,10.0,South,5.8,-,N/A,,Clear,170,2013-03-15 13:53:00
10:53 AM,43.0,32.0,65,30.02,10.0,South,6.9,-,N/A,,Clear,180,2013-03-15 14:53:00
11:53 AM,48.0,33.1,56,30.01,10.0,SW,5.8,-,N/A,,Clear,220,2013-03-15 15:53:00
12:53 PM,50.0,34.0,54,30.00,10.0,WSW,5.8,-,N/A,,Clear,240,2013-03-15 16:53:00
1:53 PM,54.0,37.0,53,29.99,10.0,South,5.8,-,N/A,,Clear,180,2013-03-15 17:53:00
2:53 PM,55.9,37.9,51,29.96,10.0,Variable,4.6,-,N/A,,Clear,0,2013-03-15 18:53:00
3:53 PM,59.0,37.9,46,29.93,10.0,Variable,4.6,-,N/A,,Clear,0,2013-03-15 19:53:00
4:53 PM,60.1,37.9,44,29.90,10.0,Variable,3.5,-,N/A,,Clear,0,2013-03-15 20:53:00
5:53 PM,62.1,37.9,41,29.88,10.0,WSW,5.8,-,N/A,,Clear,240,2013-03-15 21:53:00
6:53 PM,62.1,39.0,43,29.88,10.0,NNW,3.5,-,N/A,,Clear,340,2013-03-15 22:53:00
7:53 PM,59.0,39.0,48,29.87,10.0,Calm,Calm,-,N/A,,Clear,0,2013-03-15 23:53:00
8:53 PM,55.9,39.0,53,29.86,10.0,Calm,Calm,-,N/A,,Clear,0,2013-03-16 00:53:00
9:53 PM,55.9,39.9,55,29.84,10.0,ESE,3.5,-,N/A,,Overcast,120,2013-03-16 01:53:00
10:53 PM,57.0,39.0,51,29.79,10.0,ESE,6.9,-,N/A,,Overcast,120,2013-03-16 02:53:00
11:53 PM,57.9,39.9,51,29.77,10.0,SSE,3.5,-,N/A,,Mostly Cloudy,160,2013-03-16 03:53:00